White Post, Virginia
Current Conditions -  °F | °C
As of 10:35 AM on Thursday 30 Oct 2014 (Local Time) from KOKV Reporting Station
Overcast Overcast  
Wind Chill: 54°   Ceiling: 6000
Heat Index: 54°   Visibility: 10mi
Dew Point: 34°   Wind: 13mph
Humidity: 47%   Direction: 300°WNW
Pressure: 30.08"   Gusts: 16mph
Location:  39.06°N, 78.1°W
Report Text: KOKV 301435Z AUTO 30011G14KT 10SM OVC060 12/01 A3008 RMK AO2
Loading
Personal Weather Stations






























Interactive Weather Map
Tropical Storm Tracking
New forecast layout! Learn more

10-Day Weather Forecast

Advertisements
Track Severe Weather on mobile